Time;durP1;ratioP1;P1;durP2;ratioP2;P2;SDS_P1;SDS_P2;PMS_P1;PMS_P2;Temp;Humidity;BMP_temperature;BMP_pressure;BME280_temperature;BME280_humidity;BME280_pressure;Samples;Min_cycle;Max_cycle;Signal;HPM_P1;HPM_P2
2021/10/31 00:01:37;;;;;;;3.35;2.40;;;;;;;;;;5091859;28;20028;-52
2021/10/31 00:04:03;;;;;;;3.72;2.38;;;;;;;;;;5092763;28;20035;-52
2021/10/31 00:06:28;;;;;;;3.42;2.20;;;;;;;;;;5075071;28;20145;-53
2021/10/31 00:08:53;;;;;;;2.78;2.00;;;;;;;;;;5093682;28;20038;-54
2021/10/31 00:11:19;;;;;;;2.13;1.77;;;;;;;;;;5093182;28;20396;-52
2021/10/31 00:13:45;;;;;;;2.63;2.10;;;;;;;;;;5093993;28;20039;-52
2021/10/31 00:16:10;;;;;;;2.67;2.03;;;;;;;;;;5092568;28;20389;-53
2021/10/31 00:18:35;;;;;;;2.75;2.42;;;;;;;;;;5094452;28;20115;-53
2021/10/31 00:21:00;;;;;;;1.75;1.65;;;;;;;;;;5092488;28;20035;-52
2021/10/31 00:23:25;;;;;;;1.90;1.80;;;;;;;;;;5086947;28;20289;-52
2021/10/31 00:25:51;;;;;;;3.50;2.00;;;;;;;;;;5092296;28;20097;-54
2021/10/31 00:28:16;;;;;;;1.90;1.80;;;;;;;;;;5086741;28;20447;-52
2021/10/31 00:30:42;;;;;;;1.80;1.70;;;;;;;;;;5091567;28;20036;-53
2021/10/31 00:33:07;;;;;;;2.13;2.03;;;;;;;;;;5074871;28;20440;-54
2021/10/31 00:35:33;;;;;;;2.05;1.65;;;;;;;;;;5071070;28;20486;-53
2021/10/31 00:37:58;;;;;;;2.33;1.70;;;;;;;;;;5106815;28;20027;-51
2021/10/31 00:40:23;;;;;;;1.63;1.40;;;;;;;;;;5093799;28;20032;-52
2021/10/31 00:42:48;;;;;;;1.50;1.40;;;;;;;;;;5092370;28;20040;-53
2021/10/31 00:45:15;;;;;;;1.60;1.50;;;;;;;;;;5090733;28;20484;-54
2021/10/31 00:47:40;;;;;;;2.13;1.25;;;;;;;;;;5092945;28;20042;-54
2021/10/31 00:50:06;;;;;;;1.48;1.38;;;;;;;;;;5091467;28;20063;-54
2021/10/31 00:52:31;;;;;;;2.15;1.17;;;;;;;;;;5092353;28;20111;-54
2021/10/31 00:54:57;;;;;;;2.25;1.20;;;;;;;;;;5092894;28;20032;-52
2021/10/31 00:57:23;;;;;;;1.45;1.23;;;;;;;;;;5088257;28;20032;-50
2021/10/31 00:59:48;;;;;;;1.60;1.45;;;;;;;;;;5091753;28;20416;-53
2021/10/31 01:02:16;;;;;;;1.48;1.10;;;;;;;;;;5096900;28;20031;-51
2021/10/31 01:04:47;;;;;;;1.65;1.15;;;;;;;;;;5093121;28;20081;-51
2021/10/31 01:07:32;;;;;;;1.63;1.30;;;;;;;;;;5092599;28;20103;-51
2021/10/31 01:10:08;;;;;;;1.77;1.10;;;;;;;;;;5090863;28;20019;-52
2021/10/31 01:12:48;;;;;;;2.20;1.10;;;;;;;;;;5101734;28;20039;-54
2021/10/31 01:15:24;;;;;;;2.08;1.13;;;;;;;;;;5091356;28;20083;-53
2021/10/31 01:18:07;;;;;;;2.45;1.30;;;;;;;;;;5092691;28;20020;-54
2021/10/31 01:20:42;;;;;;;1.58;1.00;;;;;;;;;;5092415;28;20019;-52
2021/10/31 01:23:26;;;;;;;1.10;1.00;;;;;;;;;;5091593;28;20032;-53
2021/10/31 01:26:10;;;;;;;1.25;1.08;;;;;;;;;;5097476;28;20028;-53
2021/10/31 01:28:49;;;;;;;2.00;1.40;;;;;;;;;;5088375;28;20024;-54
2021/10/31 01:31:28;;;;;;;2.42;1.25;;;;;;;;;;5073452;28;20039;-49
2021/10/31 01:34:04;;;;;;;2.53;1.50;;;;;;;;;;5070103;28;20031;-53
2021/10/31 01:36:41;;;;;;;2.03;1.55;;;;;;;;;;5072620;28;20044;-54
2021/10/31 01:39:06;;;;;;;2.00;1.40;;;;;;;;;;5072235;28;20024;-53
2021/10/31 01:41:47;;;;;;;1.87;1.77;;;;;;;;;;5071947;28;20028;-54
2021/10/31 01:44:25;;;;;;;1.98;1.88;;;;;;;;;;5082220;28;20410;-53
2021/10/31 01:47:00;;;;;;;1.92;1.80;;;;;;;;;;5071646;28;20024;-54
2021/10/31 01:49:36;;;;;;;2.90;1.90;;;;;;;;;;5063170;28;20021;-51
2021/10/31 01:52:07;;;;;;;2.58;2.05;;;;;;;;;;5076500;28;20112;-51
2021/10/31 01:54:38;;;;;;;2.28;2.08;;;;;;;;;;5074929;28;20020;-47
2021/10/31 01:57:06;;;;;;;1.92;1.73;;;;;;;;;;5079160;28;20016;-53
2021/10/31 01:59:34;;;;;;;2.38;2.17;;;;;;;;;;5069096;28;20490;-53
2021/10/31 02:02:02;;;;;;;2.70;2.10;;;;;;;;;;5063914;28;20472;-53
2021/10/31 02:04:30;;;;;;;2.38;2.10;;;;;;;;;;5079675;28;20106;-52
2021/10/31 02:06:56;;;;;;;3.63;2.13;;;;;;;;;;5077143;28;20158;-52
2021/10/31 02:09:22;;;;;;;3.00;2.70;;;;;;;;;;5064527;28;20115;-51
2021/10/31 02:11:48;;;;;;;2.63;2.10;;;;;;;;;;5074604;28;20012;-51
2021/10/31 02:14:14;;;;;;;2.58;2.38;;;;;;;;;;5065979;28;20509;-53
2021/10/31 02:16:40;;;;;;;3.03;2.55;;;;;;;;;;5070216;28;20021;-52
2021/10/31 02:19:07;;;;;;;2.63;2.13;;;;;;;;;;5065294;28;20369;-53
2021/10/31 02:21:35;;;;;;;2.30;2.00;;;;;;;;;;5071231;28;20021;-51
2021/10/31 02:24:03;;;;;;;2.53;2.33;;;;;;;;;;5075575;28;20024;-54
2021/10/31 02:26:29;;;;;;;3.20;2.85;;;;;;;;;;5071426;28;20037;-53
2021/10/31 02:28:54;;;;;;;3.10;2.80;;;;;;;;;;5062856;28;20052;-53
2021/10/31 02:31:20;;;;;;;2.70;2.22;;;;;;;;;;5086790;28;20091;-49
2021/10/31 02:33:45;;;;;;;3.13;2.45;;;;;;;;;;5091548;28;20047;-53
2021/10/31 02:36:10;;;;;;;2.60;2.40;;;;;;;;;;5091005;28;20020;-54
2021/10/31 02:38:35;;;;;;;2.22;1.75;;;;;;;;;;5092144;28;20431;-50
2021/10/31 02:41:01;;;;;;;3.65;2.55;;;;;;;;;;5074038;28;20480;-54
2021/10/31 02:43:26;;;;;;;3.58;2.50;;;;;;;;;;5082554;28;20361;-51
2021/10/31 02:45:51;;;;;;;2.67;2.28;;;;;;;;;;5089661;28;20499;-48
2021/10/31 02:48:18;;;;;;;2.88;2.63;;;;;;;;;;5070017;28;20064;-49
2021/10/31 02:50:45;;;;;;;3.22;2.95;;;;;;;;;;5086723;28;20475;-52
2021/10/31 02:53:10;;;;;;;2.70;2.22;;;;;;;;;;5094937;28;20016;-54
2021/10/31 02:55:44;;;;;;;4.22;2.42;;;;;;;;;;5090824;28;20149;-53
2021/10/31 02:58:09;;;;;;;3.05;2.75;;;;;;;;;;5085202;28;20016;-51
2021/10/31 03:00:37;;;;;;;2.63;2.42;;;;;;;;;;5091472;28;20027;-54
2021/10/31 03:03:04;;;;;;;2.53;2.10;;;;;;;;;;5089948;28;20027;-54
2021/10/31 03:05:29;;;;;;;2.60;2.40;;;;;;;;;;5091009;28;20032;-54
2021/10/31 03:07:56;;;;;;;1.95;1.83;;;;;;;;;;5072276;28;20143;-51
2021/10/31 03:10:21;;;;;;;3.47;1.88;;;;;;;;;;5091092;28;20016;-53
2021/10/31 03:12:50;;;;;;;1.65;1.55;;;;;;;;;;5076962;28;20377;-52
2021/10/31 03:15:15;;;;;;;2.30;1.77;;;;;;;;;;5093649;28;20028;-52
2021/10/31 03:17:40;;;;;;;2.83;2.40;;;;;;;;;;5094862;28;20035;-54
2021/10/31 03:20:06;;;;;;;2.95;1.50;;;;;;;;;;5094337;28;20028;-50
2021/10/31 03:22:31;;;;;;;1.67;1.58;;;;;;;;;;5094220;28;20086;-51
2021/10/31 03:24:57;;;;;;;1.63;1.50;;;;;;;;;;5098550;28;20028;-53
2021/10/31 03:27:22;;;;;;;1.60;1.50;;;;;;;;;;5092461;28;20099;-52
2021/10/31 03:29:47;;;;;;;1.50;1.40;;;;;;;;;;5094358;28;20063;-52
2021/10/31 03:32:13;;;;;;;1.52;1.42;;;;;;;;;;5098976;28;20104;-51
2021/10/31 03:34:38;;;;;;;1.60;1.40;;;;;;;;;;5093926;28;20430;-56
2021/10/31 03:37:03;;;;;;;1.65;1.30;;;;;;;;;;5095299;28;20052;-53
2021/10/31 03:39:29;;;;;;;1.67;1.27;;;;;;;;;;5094269;28;20038;-54
2021/10/31 03:41:54;;;;;;;1.48;1.08;;;;;;;;;;5095484;28;20062;-52
2021/10/31 03:44:21;;;;;;;1.45;1.00;;;;;;;;;;5075698;28;20112;-50
2021/10/31 03:46:46;;;;;;;1.33;1.20;;;;;;;;;;5081720;28;20034;-53
2021/10/31 03:49:13;;;;;;;1.33;1.23;;;;;;;;;;5093897;28;20485;-54
2021/10/31 03:51:38;;;;;;;3.05;1.60;;;;;;;;;;5095815;28;20023;-54
2021/10/31 03:54:03;;;;;;;2.58;2.38;;;;;;;;;;5100121;28;20107;-52
2021/10/31 03:56:28;;;;;;;2.58;2.38;;;;;;;;;;5105324;28;20387;-48
2021/10/31 03:58:54;;;;;;;2.63;2.42;;;;;;;;;;5092775;28;20028;-52
2021/10/31 04:01:19;;;;;;;2.75;2.55;;;;;;;;;;5092042;28;20035;-53
2021/10/31 04:03:44;;;;;;;3.67;2.88;;;;;;;;;;5091535;28;20074;-52
2021/10/31 04:06:12;;;;;;;2.92;2.63;;;;;;;;;;5094664;28;20439;-51
2021/10/31 04:08:38;;;;;;;2.97;2.65;;;;;;;;;;5097737;28;20051;-54
2021/10/31 04:11:03;;;;;;;3.15;2.88;;;;;;;;;;5093704;28;20563;-54
2021/10/31 04:13:28;;;;;;;3.75;3.45;;;;;;;;;;5094392;28;20077;-51
2021/10/31 04:15:54;;;;;;;5.00;3.92;;;;;;;;;;5092825;28;20036;-52
2021/10/31 04:18:19;;;;;;;4.38;3.97;;;;;;;;;;5094210;28;20103;-51
2021/10/31 04:20:44;;;;;;;4.93;4.13;;;;;;;;;;5092467;28;20077;-51
2021/10/31 04:23:09;;;;;;;4.70;4.00;;;;;;;;;;5093225;28;20031;-53
2021/10/31 04:25:35;;;;;;;6.45;4.50;;;;;;;;;;5077710;28;20036;-52
2021/10/31 04:28:00;;;;;;;6.47;5.53;;;;;;;;;;5088636;28;20434;-54
2021/10/31 04:30:25;;;;;;;5.75;5.13;;;;;;;;;;5096770;28;20098;-54
2021/10/31 04:32:50;;;;;;;6.63;5.93;;;;;;;;;;5094446;28;20043;-53
2021/10/31 04:35:15;;;;;;;6.53;5.78;;;;;;;;;;5096340;28;20395;-52
2021/10/31 04:37:43;;;;;;;6.15;5.55;;;;;;;;;;5096181;28;20057;-52
2021/10/31 04:40:11;;;;;;;7.15;6.43;;;;;;;;;;5092972;28;20035;-52
2021/10/31 04:42:36;;;;;;;7.15;6.18;;;;;;;;;;5097821;28;20510;-53
2021/10/31 04:45:02;;;;;;;7.60;6.85;;;;;;;;;;5091869;28;20024;-53
2021/10/31 04:47:27;;;;;;;7.07;6.38;;;;;;;;;;5102876;28;20019;-52
2021/10/31 04:49:53;;;;;;;7.82;7.03;;;;;;;;;;5092958;28;20151;-54
2021/10/31 04:52:18;;;;;;;8.52;7.45;;;;;;;;;;5084108;28;20023;-50
2021/10/31 04:54:43;;;;;;;9.35;7.93;;;;;;;;;;5092674;28;20028;-53
2021/10/31 04:57:08;;;;;;;9.20;8.13;;;;;;;;;;5103513;28;20027;-54
2021/10/31 04:59:34;;;;;;;11.38;9.55;;;;;;;;;;5089151;28;20111;-50
2021/10/31 05:01:59;;;;;;;11.25;9.38;;;;;;;;;;5090212;28;20021;-51
2021/10/31 05:04:24;;;;;;;11.40;10.30;;;;;;;;;;5106388;28;20051;-51
2021/10/31 05:06:50;;;;;;;12.27;9.50;;;;;;;;;;5081303;28;20060;-54
2021/10/31 05:09:15;;;;;;;10.98;9.73;;;;;;;;;;5074150;28;20099;-53
2021/10/31 05:11:41;;;;;;;12.80;10.55;;;;;;;;;;5092079;28;20032;-53
2021/10/31 05:14:06;;;;;;;13.05;10.65;;;;;;;;;;5101030;28;20465;-53
2021/10/31 05:16:32;;;;;;;14.82;10.60;;;;;;;;;;5094221;28;20095;-50
2021/10/31 05:18:58;;;;;;;12.25;10.48;;;;;;;;;;5099611;28;20027;-51
2021/10/31 05:21:23;;;;;;;11.98;10.55;;;;;;;;;;5091752;28;20549;-53
2021/10/31 05:23:48;;;;;;;13.50;11.05;;;;;;;;;;5091305;28;20480;-50
2021/10/31 05:26:13;;;;;;;12.32;11.02;;;;;;;;;;5097802;28;20375;-52
2021/10/31 05:28:39;;;;;;;12.27;10.63;;;;;;;;;;5087289;28;20026;-53
2021/10/31 05:31:04;;;;;;;12.10;10.77;;;;;;;;;;5090910;28;20075;-53
2021/10/31 05:33:29;;;;;;;13.45;11.60;;;;;;;;;;5091062;28;20034;-50
2021/10/31 05:35:54;;;;;;;13.05;11.63;;;;;;;;;;5091574;28;20174;-53
2021/10/31 05:38:20;;;;;;;14.57;11.75;;;;;;;;;;5092555;28;20036;-50
2021/10/31 05:40:47;;;;;;;13.98;12.48;;;;;;;;;;5091629;28;20114;-53
2021/10/31 05:43:12;;;;;;;16.17;13.65;;;;;;;;;;5099781;28;20027;-50
2021/10/31 05:45:37;;;;;;;15.52;13.23;;;;;;;;;;5090753;28;20028;-54
2021/10/31 05:48:03;;;;;;;17.83;13.88;;;;;;;;;;5099950;28;20058;-52
2021/10/31 05:50:28;;;;;;;19.25;15.27;;;;;;;;;;5091817;28;20134;-54
2021/10/31 05:52:53;;;;;;;15.60;13.98;;;;;;;;;;5095818;28;20059;-52
2021/10/31 05:55:19;;;;;;;17.23;15.23;;;;;;;;;;5093604;28;20050;-53
2021/10/31 05:57:44;;;;;;;16.80;14.15;;;;;;;;;;5088314;28;20031;-50
2021/10/31 06:00:10;;;;;;;17.77;15.88;;;;;;;;;;5090674;28;20050;-54
2021/10/31 06:02:36;;;;;;;16.50;14.73;;;;;;;;;;5091676;28;20032;-49
2021/10/31 06:05:02;;;;;;;16.85;13.95;;;;;;;;;;5091545;28;20027;-54
2021/10/31 06:07:27;;;;;;;17.85;15.35;;;;;;;;;;5091959;28;20074;-52
2021/10/31 06:09:55;;;;;;;17.73;14.77;;;;;;;;;;5108057;28;20503;-51
2021/10/31 06:12:21;;;;;;;21.15;16.42;;;;;;;;;;5093636;28;20019;-53
2021/10/31 06:14:46;;;;;;;17.60;14.57;;;;;;;;;;5091239;28;20028;-47
2021/10/31 06:17:11;;;;;;;17.13;15.07;;;;;;;;;;5098326;28;20028;-54
2021/10/31 06:19:37;;;;;;;16.83;14.88;;;;;;;;;;5091917;28;20025;-54
2021/10/31 06:22:02;;;;;;;15.50;13.82;;;;;;;;;;5091355;28;20032;-49
2021/10/31 06:24:28;;;;;;;18.08;15.20;;;;;;;;;;5091793;28;20028;-50
2021/10/31 06:26:53;;;;;;;17.35;14.85;;;;;;;;;;5107907;28;20365;-52
2021/10/31 06:29:18;;;;;;;17.15;14.48;;;;;;;;;;5083223;28;20109;-48
2021/10/31 06:31:43;;;;;;;16.50;14.38;;;;;;;;;;5079435;28;20020;-55
2021/10/31 06:34:09;;;;;;;17.85;13.77;;;;;;;;;;5071601;28;20473;-51
2021/10/31 06:36:34;;;;;;;15.82;12.93;;;;;;;;;;5072391;28;20059;-53
2021/10/31 06:39:00;;;;;;;17.67;14.18;;;;;;;;;;5074267;28;20041;-52
2021/10/31 06:41:26;;;;;;;18.63;14.82;;;;;;;;;;5071446;28;20115;-50
2021/10/31 06:43:51;;;;;;;17.02;14.13;;;;;;;;;;5072301;28;20036;-53
2021/10/31 06:46:17;;;;;;;17.02;14.23;;;;;;;;;;5086227;28;20020;-54
2021/10/31 06:48:42;;;;;;;18.75;14.23;;;;;;;;;;5088787;28;20028;-54
2021/10/31 06:51:07;;;;;;;16.90;14.52;;;;;;;;;;5095527;28;20067;-50
2021/10/31 06:53:32;;;;;;;15.82;13.93;;;;;;;;;;5078589;28;20025;-51
2021/10/31 06:55:57;;;;;;;16.30;14.25;;;;;;;;;;5078703;28;20024;-51
2021/10/31 06:58:23;;;;;;;15.80;14.00;;;;;;;;;;5070354;28;20029;-54
2021/10/31 07:00:48;;;;;;;14.85;12.50;;;;;;;;;;5073698;28;20195;-53
2021/10/31 07:03:13;;;;;;;16.80;14.50;;;;;;;;;;5081547;28;20020;-52
2021/10/31 07:05:38;;;;;;;18.42;14.68;;;;;;;;;;5059854;28;20036;-49
2021/10/31 07:08:04;;;;;;;14.82;13.10;;;;;;;;;;5074537;28;20106;-51
2021/10/31 07:10:29;;;;;;;18.48;13.38;;;;;;;;;;5076611;28;20032;-47
2021/10/31 07:12:54;;;;;;;13.88;12.43;;;;;;;;;;5075320;28;20052;-52
2021/10/31 07:15:19;;;;;;;13.80;12.02;;;;;;;;;;5077614;28;20036;-52
2021/10/31 07:17:45;;;;;;;13.15;11.77;;;;;;;;;;5077564;28;20035;-53
2021/10/31 07:20:13;;;;;;;12.43;11.23;;;;;;;;;;5077546;28;20064;-51
2021/10/31 07:22:38;;;;;;;12.48;11.02;;;;;;;;;;5078716;28;20033;-54
2021/10/31 07:25:04;;;;;;;13.52;10.98;;;;;;;;;;5074907;28;20090;-48
2021/10/31 07:27:30;;;;;;;12.75;11.45;;;;;;;;;;5078202;28;20030;-50
2021/10/31 07:29:55;;;;;;;13.43;11.30;;;;;;;;;;5051224;28;20052;-50
2021/10/31 07:32:20;;;;;;;12.60;11.30;;;;;;;;;;5071087;28;20028;-52
2021/10/31 07:34:45;;;;;;;11.98;10.57;;;;;;;;;;5074611;28;20024;-56
2021/10/31 07:37:11;;;;;;;13.10;11.38;;;;;;;;;;5084045;28;20546;-55
2021/10/31 07:39:37;;;;;;;12.10;10.65;;;;;;;;;;5094707;28;20074;-55
2021/10/31 07:42:03;;;;;;;11.25;10.13;;;;;;;;;;5075525;28;20028;-53
2021/10/31 07:44:28;;;;;;;11.52;10.32;;;;;;;;;;5074566;28;20417;-54
2021/10/31 07:46:53;;;;;;;12.48;11.18;;;;;;;;;;5076834;28;20023;-53
2021/10/31 07:49:19;;;;;;;10.30;9.27;;;;;;;;;;5093935;28;20542;-54
2021/10/31 07:51:44;;;;;;;12.82;9.80;;;;;;;;;;5080616;28;20036;-55
2021/10/31 07:54:10;;;;;;;9.80;8.80;;;;;;;;;;5072944;28;20085;-56
2021/10/31 07:56:36;;;;;;;9.85;8.88;;;;;;;;;;5072244;28;20099;-56
2021/10/31 07:59:02;;;;;;;10.32;8.70;;;;;;;;;;5050572;28;20111;-55
2021/10/31 08:01:27;;;;;;;9.80;8.80;;;;;;;;;;5072887;28;20091;-56
2021/10/31 08:03:53;;;;;;;10.57;9.55;;;;;;;;;;5073413;28;20024;-57
2021/10/31 08:06:19;;;;;;;10.18;8.95;;;;;;;;;;5072427;28;20496;-56
2021/10/31 08:08:44;;;;;;;10.07;8.90;;;;;;;;;;5078263;28;20025;-57
2021/10/31 08:11:10;;;;;;;10.70;9.60;;;;;;;;;;5072832;28;20024;-54
2021/10/31 08:13:35;;;;;;;10.43;9.40;;;;;;;;;;5073439;28;20456;-54
2021/10/31 08:16:01;;;;;;;10.07;8.57;;;;;;;;;;5072514;28;20025;-55
2021/10/31 08:18:26;;;;;;;10.50;9.40;;;;;;;;;;5072458;28;20024;-55
2021/10/31 08:20:53;;;;;;;9.63;8.73;;;;;;;;;;5072667;28;20035;-56
2021/10/31 08:23:18;;;;;;;9.70;8.57;;;;;;;;;;5072410;28;20051;-54
2021/10/31 08:25:44;;;;;;;9.77;8.77;;;;;;;;;;5073773;28;20060;-56
2021/10/31 08:28:11;;;;;;;10.13;9.13;;;;;;;;;;5065525;28;20048;-56
2021/10/31 08:30:39;;;;;;;10.55;9.55;;;;;;;;;;5091462;28;20044;-54
2021/10/31 08:33:18;;;;;;;11.18;10.18;;;;;;;;;;5104875;28;20429;-52
2021/10/31 08:35:43;;;;;;;11.05;9.95;;;;;;;;;;5108637;28;20024;-54
2021/10/31 08:38:10;;;;;;;11.23;10.02;;;;;;;;;;5091824;28;20089;-55
2021/10/31 08:40:35;;;;;;;12.40;11.13;;;;;;;;;;5093310;28;20389;-54
2021/10/31 08:43:01;;;;;;;12.15;10.85;;;;;;;;;;5093174;28;20028;-56
2021/10/31 08:45:26;;;;;;;12.48;11.13;;;;;;;;;;5092257;28;20465;-57
2021/10/31 08:47:52;;;;;;;11.70;10.50;;;;;;;;;;5092634;28;20052;-56
2021/10/31 08:50:17;;;;;;;11.10;9.88;;;;;;;;;;5092934;28;20020;-56
2021/10/31 08:52:42;;;;;;;10.43;9.43;;;;;;;;;;5102892;28;20464;-56
2021/10/31 08:55:08;;;;;;;11.55;10.35;;;;;;;;;;5107463;28;20384;-51
2021/10/31 08:57:33;;;;;;;11.57;10.07;;;;;;;;;;5085027;28;20060;-53
2021/10/31 08:59:59;;;;;;;11.60;10.40;;;;;;;;;;5092502;28;20027;-53
2021/10/31 09:02:24;;;;;;;13.23;10.25;;;;;;;;;;5092235;28;20020;-54
2021/10/31 09:04:49;;;;;;;12.38;10.82;;;;;;;;;;5073908;28;20484;-53
2021/10/31 09:07:15;;;;;;;11.23;9.98;;;;;;;;;;5092715;28;20112;-53
2021/10/31 09:09:43;;;;;;;11.45;10.35;;;;;;;;;;5075522;28;20020;-52
2021/10/31 09:12:09;;;;;;;11.38;10.25;;;;;;;;;;5092066;28;20017;-53
2021/10/31 09:14:34;;;;;;;11.55;10.45;;;;;;;;;;5092601;28;20114;-55
2021/10/31 09:17:00;;;;;;;11.73;10.30;;;;;;;;;;5091972;28;20085;-57
2021/10/31 09:19:25;;;;;;;11.70;10.43;;;;;;;;;;5092118;28;20496;-56
2021/10/31 09:21:50;;;;;;;11.50;10.40;;;;;;;;;;5101111;28;20499;-56
2021/10/31 09:24:16;;;;;;;11.10;10.00;;;;;;;;;;5092400;28;20028;-55
2021/10/31 09:26:41;;;;;;;11.52;9.85;;;;;;;;;;5092705;28;20446;-57
2021/10/31 09:29:07;;;;;;;10.55;9.55;;;;;;;;;;5088880;28;20085;-56
2021/10/31 09:31:32;;;;;;;10.82;9.82;;;;;;;;;;5092292;28;20012;-55
2021/10/31 09:33:59;;;;;;;10.48;9.40;;;;;;;;;;5098550;28;20023;-56
2021/10/31 09:36:24;;;;;;;10.20;9.13;;;;;;;;;;5092236;28;20102;-55
2021/10/31 09:38:52;;;;;;;10.27;9.27;;;;;;;;;;5092736;28;20532;-53
2021/10/31 09:41:18;;;;;;;10.10;9.02;;;;;;;;;;5090770;28;20027;-57
2021/10/31 09:43:59;;;;;;;9.95;9.05;;;;;;;;;;5097102;28;20028;-56
2021/10/31 09:46:25;;;;;;;10.43;9.32;;;;;;;;;;5096281;28;20033;-55
2021/10/31 09:48:50;;;;;;;10.07;9.07;;;;;;;;;;5097154;28;20021;-54
2021/10/31 09:51:16;;;;;;;10.75;8.98;;;;;;;;;;5073575;28;20027;-51
2021/10/31 09:53:41;;;;;;;9.98;8.95;;;;;;;;;;5098259;28;20027;-56
2021/10/31 09:56:07;;;;;;;9.65;8.73;;;;;;;;;;5092383;28;20024;-55
2021/10/31 09:58:37;;;;;;;9.57;8.27;;;;;;;;;;5084939;28;20035;-54
2021/10/31 10:01:16;;;;;;;9.13;8.18;;;;;;;;;;5091082;28;20080;-55
2021/10/31 10:03:51;;;;;;;7.70;7.00;;;;;;;;;;5096423;28;20047;-55
2021/10/31 10:06:21;;;;;;;8.60;7.80;;;;;;;;;;5091709;28;20468;-54
2021/10/31 10:08:58;;;;;;;7.97;7.18;;;;;;;;;;5092069;28;20019;-54
2021/10/31 10:11:23;;;;;;;7.78;7.07;;;;;;;;;;5091210;28;20032;-54
2021/10/31 10:13:49;;;;;;;11.50;7.60;;;;;;;;;;5084805;28;20287;-55
2021/10/31 10:16:16;;;;;;;9.25;7.28;;;;;;;;;;5092472;28;20480;-54
2021/10/31 10:18:42;;;;;;;7.88;7.13;;;;;;;;;;5093793;28;20070;-51
2021/10/31 10:21:17;;;;;;;7.43;6.57;;;;;;;;;;5096692;28;20024;-52
2021/10/31 10:24:09;;;;;;;6.65;6.10;;;;;;;;;;5108909;28;20391;-55
2021/10/31 10:26:36;;;;;;;7.28;6.57;;;;;;;;;;5091005;28;20043;-57
2021/10/31 10:29:11;;;;;;;8.43;6.47;;;;;;;;;;5094077;28;20059;-55
2021/10/31 10:31:36;;;;;;;7.20;5.93;;;;;;;;;;5095988;28;20034;-54
2021/10/31 10:34:02;;;;;;;6.67;6.17;;;;;;;;;;5098588;28;20106;-54
2021/10/31 10:36:27;;;;;;;6.40;5.88;;;;;;;;;;5095098;28;20366;-54
2021/10/31 10:38:59;;;;;;;5.75;5.30;;;;;;;;;;5101624;28;20039;-56
2021/10/31 10:41:39;;;;;;;5.97;5.40;;;;;;;;;;5110436;28;20012;-52
2021/10/31 10:44:24;;;;;;;5.80;5.30;;;;;;;;;;5107497;28;20023;-57
2021/10/31 10:46:54;;;;;;;5.68;5.18;;;;;;;;;;5089712;28;20035;-55
2021/10/31 10:49:20;;;;;;;4.95;4.55;;;;;;;;;;5095171;28;20437;-56
2021/10/31 10:52:06;;;;;;;5.28;4.78;;;;;;;;;;5095594;28;20447;-52
2021/10/31 10:54:33;;;;;;;7.05;5.35;;;;;;;;;;5092444;28;20031;-69
2021/10/31 10:57:03;;;;;;;5.95;5.50;;;;;;;;;;5099602;28;20031;-68
2021/10/31 10:59:28;;;;;;;5.57;5.07;;;;;;;;;;5064292;28;20068;-65
2021/10/31 11:02:10;;;;;;;6.35;5.85;;;;;;;;;;5071673;28;20023;-67
2021/10/31 11:04:36;;;;;;;6.05;5.10;;;;;;;;;;5083489;28;20416;-66
2021/10/31 11:07:02;;;;;;;5.22;4.72;;;;;;;;;;5088756;28;20021;-66
2021/10/31 11:09:35;;;;;;;5.20;4.75;;;;;;;;;;5087216;28;20461;-67
2021/10/31 11:12:20;;;;;;;4.57;4.13;;;;;;;;;;5093256;28;20020;-66
2021/10/31 11:14:45;;;;;;;3.92;3.55;;;;;;;;;;5090545;28;20016;-66
2021/10/31 11:17:10;;;;;;;3.95;3.65;;;;;;;;;;5091126;28;20043;-66
2021/10/31 11:19:36;;;;;;;3.90;3.60;;;;;;;;;;5094450;28;20035;-66
2021/10/31 11:22:01;;;;;;;2.92;2.70;;;;;;;;;;5090777;28;20435;-66
2021/10/31 11:24:26;;;;;;;2.90;2.70;;;;;;;;;;5094361;28;20024;-67
2021/10/31 11:26:53;;;;;;;2.58;2.38;;;;;;;;;;5076187;28;20254;-67
2021/10/31 11:29:19;;;;;;;2.85;2.60;;;;;;;;;;5087516;28;20036;-67
2021/10/31 11:31:44;;;;;;;3.03;2.83;;;;;;;;;;5093421;28;20031;-67
2021/10/31 11:34:10;;;;;;;2.50;2.30;;;;;;;;;;5093126;28;20537;-67
2021/10/31 11:36:36;;;;;;;2.50;2.30;;;;;;;;;;5066342;28;20034;-67
2021/10/31 11:39:02;;;;;;;2.85;2.58;;;;;;;;;;5094017;28;20102;-68
2021/10/31 11:41:32;;;;;;;2.72;2.53;;;;;;;;;;5079825;28;20115;-68
2021/10/31 11:43:57;;;;;;;4.43;4.03;;;;;;;;;;5094639;28;20012;-69
2021/10/31 11:46:35;;;;;;;4.30;3.90;;;;;;;;;;5091870;28;20127;-68
2021/10/31 11:49:01;;;;;;;5.35;4.95;;;;;;;;;;5092964;28;20262;-69
2021/10/31 11:51:39;;;;;;;4.57;4.17;;;;;;;;;;5093780;28;20024;-68
2021/10/31 11:54:08;;;;;;;5.28;4.88;;;;;;;;;;5076113;28;20762;-69
2021/10/31 11:56:52;;;;;;;5.57;5.13;;;;;;;;;;5093871;28;20099;-69
2021/10/31 11:59:18;;;;;;;5.93;5.43;;;;;;;;;;5087857;28;20012;-69
2021/10/31 12:01:46;;;;;;;5.45;4.47;;;;;;;;;;5092282;28;20024;-68
2021/10/31 12:04:31;;;;;;;5.60;5.18;;;;;;;;;;5094041;28;20020;-69
2021/10/31 12:07:07;;;;;;;5.55;5.15;;;;;;;;;;5089251;28;20115;-69
2021/10/31 12:09:33;;;;;;;5.72;5.07;;;;;;;;;;5093287;28;20023;-69
2021/10/31 12:12:02;;;;;;;7.35;6.78;;;;;;;;;;5093436;28;20134;-69
2021/10/31 12:14:47;;;;;;;8.80;8.10;;;;;;;;;;5092160;28;20016;-69
2021/10/31 12:17:13;;;;;;;7.78;7.28;;;;;;;;;;5093124;28;20028;-69
2021/10/31 12:19:38;;;;;;;9.30;8.70;;;;;;;;;;5109208;28;20038;-68
2021/10/31 12:22:05;;;;;;;10.43;9.70;;;;;;;;;;5094314;28;20387;-69
2021/10/31 12:24:38;;;;;;;7.30;6.70;;;;;;;;;;5096985;28;20318;-69
2021/10/31 12:27:14;;;;;;;5.55;5.13;;;;;;;;;;5072972;28;20020;-69
2021/10/31 12:29:47;;;;;;;4.28;3.90;;;;;;;;;;5091992;28;20097;-70
2021/10/31 12:32:14;;;;;;;4.43;3.90;;;;;;;;;;5074901;28;20035;-70
2021/10/31 12:34:44;;;;;;;5.00;3.95;;;;;;;;;;5076596;28;20024;-70
2021/10/31 12:37:22;;;;;;;4.47;4.10;;;;;;;;;;5082204;28;20027;-70
2021/10/31 12:39:54;;;;;;;3.67;3.38;;;;;;;;;;5113941;28;20047;-70
2021/10/31 12:42:24;;;;;;;3.90;3.60;;;;;;;;;;5092487;28;20031;-70
2021/10/31 12:44:54;;;;;;;4.40;3.20;;;;;;;;;;5079661;28;20024;-70
2021/10/31 12:47:25;;;;;;;3.58;3.28;;;;;;;;;;5074798;28;20047;-70
2021/10/31 12:49:51;;;;;;;3.28;2.92;;;;;;;;;;5100370;28;20028;-70
2021/10/31 12:52:21;;;;;;;3.80;3.35;;;;;;;;;;5097863;28;20016;-70
2021/10/31 12:54:53;;;;;;;5.22;3.78;;;;;;;;;;5091279;28;20015;-70
2021/10/31 12:57:19;;;;;;;4.38;3.97;;;;;;;;;;5089226;28;20044;-70
2021/10/31 12:59:48;;;;;;;4.72;4.07;;;;;;;;;;5091795;28;20024;-70
2021/10/31 13:02:15;;;;;;;5.20;4.45;;;;;;;;;;5089603;28;20031;-70
2021/10/31 13:04:53;;;;;;;4.60;4.20;;;;;;;;;;5085286;28;20051;-70
2021/10/31 13:07:18;;;;;;;6.55;4.50;;;;;;;;;;5092684;28;20043;-70
2021/10/31 13:09:45;;;;;;;4.70;4.30;;;;;;;;;;5113566;28;20114;-70
2021/10/31 13:12:27;;;;;;;4.63;4.22;;;;;;;;;;5106416;28;20020;-70
2021/10/31 13:14:52;;;;;;;5.90;5.03;;;;;;;;;;5104545;28;20023;-71
2021/10/31 13:17:17;;;;;;;5.70;4.65;;;;;;;;;;5092428;28;20028;-70
2021/10/31 13:19:42;;;;;;;5.35;4.85;;;;;;;;;;5093463;28;20095;-70
2021/10/31 13:22:13;;;;;;;6.05;5.43;;;;;;;;;;5092288;28;20074;-70
2021/10/31 13:24:44;;;;;;;6.30;4.90;;;;;;;;;;5073611;28;20119;-70
2021/10/31 13:27:15;;;;;;;6.53;5.93;;;;;;;;;;5071778;28;20043;-70
2021/10/31 13:29:44;;;;;;;6.20;5.65;;;;;;;;;;5100730;28;20381;-70
2021/10/31 13:32:20;;;;;;;8.07;6.43;;;;;;;;;;5070007;28;20028;-70
2021/10/31 13:34:46;;;;;;;6.60;5.90;;;;;;;;;;5105084;28;20054;-70
2021/10/31 13:37:12;;;;;;;7.15;6.20;;;;;;;;;;5082299;28;20473;-70
2021/10/31 13:39:38;;;;;;;6.50;5.90;;;;;;;;;;5092471;28;20020;-70
2021/10/31 13:42:05;;;;;;;6.38;5.57;;;;;;;;;;5073608;28;20020;-71
2021/10/31 13:44:30;;;;;;;8.48;7.57;;;;;;;;;;5081068;28;20065;-70
2021/10/31 13:47:01;;;;;;;8.70;7.80;;;;;;;;;;5079673;28;20042;-70
2021/10/31 13:49:29;;;;;;;10.20;8.07;;;;;;;;;;5094076;28;20559;-70
2021/10/31 13:51:54;;;;;;;8.35;7.47;;;;;;;;;;5111880;28;20015;-69
2021/10/31 13:54:20;;;;;;;8.00;7.20;;;;;;;;;;5082356;28;20035;-70
2021/10/31 13:56:47;;;;;;;9.65;7.82;;;;;;;;;;5084886;28;20486;-69
2021/10/31 13:59:13;;;;;;;9.27;8.00;;;;;;;;;;5070055;28;20111;-69
2021/10/31 14:01:40;;;;;;;9.52;8.52;;;;;;;;;;5072991;28;20035;-69
2021/10/31 14:04:07;;;;;;;9.80;8.80;;;;;;;;;;5092044;28;20012;-67
2021/10/31 14:06:33;;;;;;;11.85;9.70;;;;;;;;;;5103468;28;20107;-69
2021/10/31 14:09:02;;;;;;;11.07;9.93;;;;;;;;;;5073375;28;20530;-68
2021/10/31 14:11:28;;;;;;;11.45;10.27;;;;;;;;;;5091318;28;20492;-68
2021/10/31 14:13:54;;;;;;;11.38;10.27;;;;;;;;;;5083536;28;20031;-68
2021/10/31 14:16:20;;;;;;;11.45;10.25;;;;;;;;;;5090227;28;20032;-69
2021/10/31 14:18:46;;;;;;;11.90;10.70;;;;;;;;;;5092854;28;20020;-69
2021/10/31 14:21:13;;;;;;;11.20;10.13;;;;;;;;;;5112022;28;20046;-69
2021/10/31 14:23:39;;;;;;;13.13;11.70;;;;;;;;;;5091964;28;20190;-69
2021/10/31 14:26:06;;;;;;;12.88;11.60;;;;;;;;;;5107459;28;20024;-69
2021/10/31 14:28:33;;;;;;;12.02;10.80;;;;;;;;;;5091632;28;20058;-69
2021/10/31 14:31:02;;;;;;;12.30;10.88;;;;;;;;;;5073291;28;20109;-69
2021/10/31 14:33:29;;;;;;;13.27;11.70;;;;;;;;;;5089062;28;20019;-68
2021/10/31 14:35:59;;;;;;;13.63;12.30;;;;;;;;;;5090193;28;20020;-67
2021/10/31 14:38:31;;;;;;;14.93;12.75;;;;;;;;;;5090711;28;20103;-70